sensor_id;sensor_type;location;lat;lon;timestamp;P1;durP1;ratioP1;P2;durP2;ratioP2
10469;SDS011;5282;47.052;15.458;2022-12-11T00:01:07;1.00;;;1.00;;
10469;SDS011;5282;47.052;15.458;2022-12-11T00:03:36;0.70;;;0.70;;
10469;SDS011;5282;47.052;15.458;2022-12-11T00:06:04;0.70;;;0.70;;
10469;SDS011;5282;47.052;15.458;2022-12-11T00:08:32;0.90;;;0.90;;
10469;SDS011;5282;47.052;15.458;2022-12-11T00:11:00;0.90;;;0.90;;
10469;SDS011;5282;47.052;15.458;2022-12-11T00:13:28;0.90;;;0.67;;
10469;SDS011;5282;47.052;15.458;2022-12-11T00:15:56;0.80;;;0.80;;
10469;SDS011;5282;47.052;15.458;2022-12-11T00:18:23;0.70;;;0.70;;
10469;SDS011;5282;47.052;15.458;2022-12-11T00:20:52;0.80;;;0.80;;
10469;SDS011;5282;47.052;15.458;2022-12-11T00:23:19;0.80;;;0.80;;
10469;SDS011;5282;47.052;15.458;2022-12-11T00:25:46;0.63;;;0.63;;
10469;SDS011;5282;47.052;15.458;2022-12-11T00:28:14;0.73;;;0.73;;
10469;SDS011;5282;47.052;15.458;2022-12-11T00:30:43;0.60;;;0.60;;
10469;SDS011;5282;47.052;15.458;2022-12-11T00:33:10;0.70;;;0.70;;
10469;SDS011;5282;47.052;15.458;2022-12-11T00:35:38;0.83;;;0.83;;
10469;SDS011;5282;47.052;15.458;2022-12-11T00:38:08;0.67;;;0.67;;
10469;SDS011;5282;47.052;15.458;2022-12-11T00:40:41;0.93;;;0.93;;
10469;SDS011;5282;47.052;15.458;2022-12-11T00:43:08;0.83;;;0.83;;
10469;SDS011;5282;47.052;15.458;2022-12-11T00:45:37;0.87;;;0.87;;
10469;SDS011;5282;47.052;15.458;2022-12-11T00:48:06;0.97;;;0.97;;
10469;SDS011;5282;47.052;15.458;2022-12-11T00:50:33;0.70;;;0.70;;
10469;SDS011;5282;47.052;15.458;2022-12-11T00:53:01;0.70;;;0.70;;
10469;SDS011;5282;47.052;15.458;2022-12-11T00:55:30;0.90;;;0.90;;
10469;SDS011;5282;47.052;15.458;2022-12-11T00:57:57;0.73;;;0.73;;
10469;SDS011;5282;47.052;15.458;2022-12-11T01:00:24;0.90;;;0.90;;
10469;SDS011;5282;47.052;15.458;2022-12-11T01:02:51;1.10;;;0.93;;
10469;SDS011;5282;47.052;15.458;2022-12-11T01:05:20;0.90;;;0.90;;
10469;SDS011;5282;47.052;15.458;2022-12-11T01:07:46;0.83;;;0.83;;
10469;SDS011;5282;47.052;15.458;2022-12-11T01:10:14;1.27;;;0.93;;
10469;SDS011;5282;47.052;15.458;2022-12-11T01:12:52;0.90;;;0.90;;
10469;SDS011;5282;47.052;15.458;2022-12-11T01:15:22;0.70;;;0.70;;
10469;SDS011;5282;47.052;15.458;2022-12-11T01:17:52;0.70;;;0.70;;
10469;SDS011;5282;47.052;15.458;2022-12-11T01:20:20;0.70;;;0.70;;
10469;SDS011;5282;47.052;15.458;2022-12-11T01:22:50;0.90;;;0.90;;
10469;SDS011;5282;47.052;15.458;2022-12-11T01:25:18;0.80;;;0.80;;
10469;SDS011;5282;47.052;15.458;2022-12-11T01:27:45;1.00;;;1.00;;
10469;SDS011;5282;47.052;15.458;2022-12-11T01:30:14;0.80;;;0.80;;
10469;SDS011;5282;47.052;15.458;2022-12-11T01:32:41;1.00;;;1.00;;
10469;SDS011;5282;47.052;15.458;2022-12-11T01:35:08;0.70;;;0.70;;
10469;SDS011;5282;47.052;15.458;2022-12-11T01:37:37;0.70;;;0.70;;
10469;SDS011;5282;47.052;15.458;2022-12-11T01:40:05;0.70;;;0.70;;
10469;SDS011;5282;47.052;15.458;2022-12-11T01:42:33;0.80;;;0.80;;
10469;SDS011;5282;47.052;15.458;2022-12-11T01:45:22;0.80;;;0.80;;
10469;SDS011;5282;47.052;15.458;2022-12-11T01:47:53;0.70;;;0.70;;
10469;SDS011;5282;47.052;15.458;2022-12-11T01:50:24;0.60;;;0.60;;
10469;SDS011;5282;47.052;15.458;2022-12-11T01:52:51;0.60;;;0.60;;
10469;SDS011;5282;47.052;15.458;2022-12-11T01:55:19;1.20;;;0.90;;
10469;SDS011;5282;47.052;15.458;2022-12-11T01:57:46;0.60;;;0.60;;
10469;SDS011;5282;47.052;15.458;2022-12-11T02:00:16;0.80;;;0.80;;
10469;SDS011;5282;47.052;15.458;2022-12-11T02:02:44;0.73;;;0.73;;
10469;SDS011;5282;47.052;15.458;2022-12-11T02:05:13;0.53;;;0.53;;
10469;SDS011;5282;47.052;15.458;2022-12-11T02:07:42;0.70;;;0.70;;
10469;SDS011;5282;47.052;15.458;2022-12-11T02:10:13;0.50;;;0.50;;
10469;SDS011;5282;47.052;15.458;2022-12-11T02:12:41;0.70;;;0.70;;
10469;SDS011;5282;47.052;15.458;2022-12-11T02:15:21;0.60;;;0.60;;
10469;SDS011;5282;47.052;15.458;2022-12-11T02:17:59;0.60;;;0.60;;
10469;SDS011;5282;47.052;15.458;2022-12-11T02:20:33;0.50;;;0.50;;
10469;SDS011;5282;47.052;15.458;2022-12-11T02:23:07;0.60;;;0.60;;
10469;SDS011;5282;47.052;15.458;2022-12-11T02:25:50;0.57;;;0.57;;
10469;SDS011;5282;47.052;15.458;2022-12-11T02:28:30;0.83;;;0.50;;
10469;SDS011;5282;47.052;15.458;2022-12-11T02:31:01;0.60;;;0.47;;
10469;SDS011;5282;47.052;15.458;2022-12-11T02:33:33;0.50;;;0.50;;
10469;SDS011;5282;47.052;15.458;2022-12-11T02:36:06;0.70;;;0.70;;
10469;SDS011;5282;47.052;15.458;2022-12-11T02:38:35;0.60;;;0.60;;
10469;SDS011;5282;47.052;15.458;2022-12-11T02:41:07;0.60;;;0.60;;
10469;SDS011;5282;47.052;15.458;2022-12-11T02:43:38;0.40;;;0.40;;
10469;SDS011;5282;47.052;15.458;2022-12-11T02:46:07;0.40;;;0.40;;
10469;SDS011;5282;47.052;15.458;2022-12-11T02:48:35;0.57;;;0.57;;
10469;SDS011;5282;47.052;15.458;2022-12-11T02:51:02;0.40;;;0.40;;
10469;SDS011;5282;47.052;15.458;2022-12-11T02:53:34;0.43;;;0.43;;
10469;SDS011;5282;47.052;15.458;2022-12-11T02:56:06;0.43;;;0.43;;
10469;SDS011;5282;47.052;15.458;2022-12-11T02:58:37;0.40;;;0.40;;
10469;SDS011;5282;47.052;15.458;2022-12-11T03:01:11;0.77;;;0.57;;
10469;SDS011;5282;47.052;15.458;2022-12-11T03:03:38;0.50;;;0.50;;
10469;SDS011;5282;47.052;15.458;2022-12-11T03:06:05;0.50;;;0.50;;
10469;SDS011;5282;47.052;15.458;2022-12-11T03:08:35;0.37;;;0.37;;
10469;SDS011;5282;47.052;15.458;2022-12-11T03:11:08;0.30;;;0.30;;
10469;SDS011;5282;47.052;15.458;2022-12-11T03:13:35;0.50;;;0.50;;
10469;SDS011;5282;47.052;15.458;2022-12-11T03:16:06;1.67;;;0.60;;
10469;SDS011;5282;47.052;15.458;2022-12-11T03:18:41;0.30;;;0.30;;
10469;SDS011;5282;47.052;15.458;2022-12-11T03:21:14;0.50;;;0.50;;
10469;SDS011;5282;47.052;15.458;2022-12-11T03:23:47;0.40;;;0.40;;
10469;SDS011;5282;47.052;15.458;2022-12-11T03:26:17;2.40;;;0.50;;
10469;SDS011;5282;47.052;15.458;2022-12-11T03:28:47;0.60;;;0.60;;
10469;SDS011;5282;47.052;15.458;2022-12-11T03:31:23;0.47;;;0.47;;
10469;SDS011;5282;47.052;15.458;2022-12-11T03:33:55;0.50;;;0.50;;
10469;SDS011;5282;47.052;15.458;2022-12-11T03:36:34;0.50;;;0.50;;
10469;SDS011;5282;47.052;15.458;2022-12-11T03:39:05;0.60;;;0.60;;
10469;SDS011;5282;47.052;15.458;2022-12-11T03:41:34;0.50;;;0.50;;
10469;SDS011;5282;47.052;15.458;2022-12-11T03:44:05;0.70;;;0.70;;
10469;SDS011;5282;47.052;15.458;2022-12-11T03:46:35;0.60;;;0.60;;
10469;SDS011;5282;47.052;15.458;2022-12-11T03:49:06;0.70;;;0.70;;
10469;SDS011;5282;47.052;15.458;2022-12-11T03:51:40;0.50;;;0.50;;
10469;SDS011;5282;47.052;15.458;2022-12-11T03:54:13;0.57;;;0.53;;
10469;SDS011;5282;47.052;15.458;2022-12-11T03:56:41;0.80;;;0.80;;
10469;SDS011;5282;47.052;15.458;2022-12-11T03:59:10;0.80;;;0.67;;
10469;SDS011;5282;47.052;15.458;2022-12-11T04:01:39;0.60;;;0.60;;
10469;SDS011;5282;47.052;15.458;2022-12-11T04:04:06;0.60;;;0.60;;
10469;SDS011;5282;47.052;15.458;2022-12-11T04:06:33;0.70;;;0.70;;
10469;SDS011;5282;47.052;15.458;2022-12-11T04:08:59;0.60;;;0.60;;
10469;SDS011;5282;47.052;15.458;2022-12-11T04:11:26;0.60;;;0.60;;
10469;SDS011;5282;47.052;15.458;2022-12-11T04:14:05;0.70;;;0.70;;
10469;SDS011;5282;47.052;15.458;2022-12-11T04:16:53;0.63;;;0.63;;
10469;SDS011;5282;47.052;15.458;2022-12-11T04:19:20;0.60;;;0.60;;
10469;SDS011;5282;47.052;15.458;2022-12-11T04:22:06;0.80;;;0.80;;
10469;SDS011;5282;47.052;15.458;2022-12-11T04:24:52;0.47;;;0.47;;
10469;SDS011;5282;47.052;15.458;2022-12-11T04:27:22;0.80;;;0.80;;
10469;SDS011;5282;47.052;15.458;2022-12-11T04:30:07;0.90;;;0.90;;
10469;SDS011;5282;47.052;15.458;2022-12-11T04:32:38;0.70;;;0.70;;
10469;SDS011;5282;47.052;15.458;2022-12-11T04:35:05;0.50;;;0.50;;
10469;SDS011;5282;47.052;15.458;2022-12-11T04:37:33;0.70;;;0.70;;
10469;SDS011;5282;47.052;15.458;2022-12-11T04:40:00;0.80;;;0.80;;
10469;SDS011;5282;47.052;15.458;2022-12-11T04:42:28;0.70;;;0.70;;
10469;SDS011;5282;47.052;15.458;2022-12-11T04:44:55;0.90;;;0.90;;
10469;SDS011;5282;47.052;15.458;2022-12-11T04:47:21;0.87;;;0.87;;
10469;SDS011;5282;47.052;15.458;2022-12-11T04:49:52;0.90;;;0.90;;
10469;SDS011;5282;47.052;15.458;2022-12-11T04:52:19;0.80;;;0.80;;
10469;SDS011;5282;47.052;15.458;2022-12-11T04:54:46;1.10;;;1.10;;
10469;SDS011;5282;47.052;15.458;2022-12-11T04:57:13;1.10;;;1.10;;
10469;SDS011;5282;47.052;15.458;2022-12-11T04:59:43;1.00;;;1.00;;
10469;SDS011;5282;47.052;15.458;2022-12-11T05:02:10;0.93;;;0.93;;
10469;SDS011;5282;47.052;15.458;2022-12-11T05:04:37;0.80;;;0.80;;
10469;SDS011;5282;47.052;15.458;2022-12-11T05:07:05;1.00;;;1.00;;
10469;SDS011;5282;47.052;15.458;2022-12-11T05:09:33;2.90;;;0.90;;
10469;SDS011;5282;47.052;15.458;2022-12-11T05:12:00;1.00;;;1.00;;
10469;SDS011;5282;47.052;15.458;2022-12-11T05:14:27;1.00;;;1.00;;
10469;SDS011;5282;47.052;15.458;2022-12-11T05:16:56;1.03;;;1.03;;
10469;SDS011;5282;47.052;15.458;2022-12-11T05:19:23;1.10;;;1.10;;
10469;SDS011;5282;47.052;15.458;2022-12-11T05:21:50;1.03;;;1.03;;
10469;SDS011;5282;47.052;15.458;2022-12-11T05:24:18;0.87;;;0.87;;
10469;SDS011;5282;47.052;15.458;2022-12-11T05:26:45;0.80;;;0.80;;
10469;SDS011;5282;47.052;15.458;2022-12-11T05:29:12;1.00;;;1.00;;
10469;SDS011;5282;47.052;15.458;2022-12-11T05:31:39;1.13;;;1.13;;
10469;SDS011;5282;47.052;15.458;2022-12-11T05:34:06;1.00;;;1.00;;
10469;SDS011;5282;47.052;15.458;2022-12-11T05:36:32;0.90;;;0.90;;
10469;SDS011;5282;47.052;15.458;2022-12-11T05:39:00;1.00;;;1.00;;
10469;SDS011;5282;47.052;15.458;2022-12-11T05:41:30;1.00;;;1.00;;
10469;SDS011;5282;47.052;15.458;2022-12-11T05:43:58;1.10;;;1.00;;
10469;SDS011;5282;47.052;15.458;2022-12-11T05:46:25;1.00;;;1.00;;
10469;SDS011;5282;47.052;15.458;2022-12-11T05:48:54;1.00;;;1.00;;
10469;SDS011;5282;47.052;15.458;2022-12-11T05:51:22;1.00;;;1.00;;
10469;SDS011;5282;47.052;15.458;2022-12-11T05:53:50;1.10;;;1.10;;
10469;SDS011;5282;47.052;15.458;2022-12-11T05:56:20;0.90;;;0.90;;
10469;SDS011;5282;47.052;15.458;2022-12-11T05:58:49;0.80;;;0.80;;
10469;SDS011;5282;47.052;15.458;2022-12-11T06:01:18;5.80;;;1.57;;
10469;SDS011;5282;47.052;15.458;2022-12-11T06:03:46;1.03;;;1.03;;
10469;SDS011;5282;47.052;15.458;2022-12-11T06:06:14;1.20;;;1.20;;
10469;SDS011;5282;47.052;15.458;2022-12-11T06:08:41;1.40;;;1.27;;
10469;SDS011;5282;47.052;15.458;2022-12-11T06:11:10;1.00;;;1.00;;
10469;SDS011;5282;47.052;15.458;2022-12-11T06:13:37;0.93;;;0.93;;
10469;SDS011;5282;47.052;15.458;2022-12-11T06:16:06;1.10;;;1.10;;
10469;SDS011;5282;47.052;15.458;2022-12-11T06:18:34;0.90;;;0.90;;
10469;SDS011;5282;47.052;15.458;2022-12-11T06:21:09;1.00;;;1.00;;
10469;SDS011;5282;47.052;15.458;2022-12-11T06:23:37;1.17;;;0.90;;
10469;SDS011;5282;47.052;15.458;2022-12-11T06:26:04;1.10;;;1.10;;
10469;SDS011;5282;47.052;15.458;2022-12-11T06:28:31;1.00;;;1.00;;
10469;SDS011;5282;47.052;15.458;2022-12-11T06:30:58;1.00;;;1.00;;
10469;SDS011;5282;47.052;15.458;2022-12-11T06:33:26;1.30;;;1.30;;
10469;SDS011;5282;47.052;15.458;2022-12-11T06:35:53;0.90;;;0.90;;
10469;SDS011;5282;47.052;15.458;2022-12-11T06:38:21;0.90;;;0.77;;
10469;SDS011;5282;47.052;15.458;2022-12-11T06:40:53;1.00;;;1.00;;
10469;SDS011;5282;47.052;15.458;2022-12-11T06:43:23;1.07;;;1.07;;
10469;SDS011;5282;47.052;15.458;2022-12-11T06:45:50;1.27;;;1.27;;
10469;SDS011;5282;47.052;15.458;2022-12-11T06:48:17;1.20;;;1.20;;
10469;SDS011;5282;47.052;15.458;2022-12-11T06:50:46;1.00;;;1.00;;
10469;SDS011;5282;47.052;15.458;2022-12-11T06:53:13;1.10;;;1.10;;
10469;SDS011;5282;47.052;15.458;2022-12-11T06:55:40;1.00;;;1.00;;
10469;SDS011;5282;47.052;15.458;2022-12-11T06:58:08;1.17;;;1.17;;
10469;SDS011;5282;47.052;15.458;2022-12-11T07:00:39;1.00;;;1.00;;
10469;SDS011;5282;47.052;15.458;2022-12-11T07:03:08;0.97;;;0.97;;
10469;SDS011;5282;47.052;15.458;2022-12-11T07:05:35;1.20;;;1.20;;
10469;SDS011;5282;47.052;15.458;2022-12-11T07:08:04;1.20;;;1.20;;
10469;SDS011;5282;47.052;15.458;2022-12-11T07:10:31;1.10;;;1.10;;
10469;SDS011;5282;47.052;15.458;2022-12-11T07:12:58;1.13;;;1.13;;
10469;SDS011;5282;47.052;15.458;2022-12-11T07:15:25;1.30;;;1.20;;
10469;SDS011;5282;47.052;15.458;2022-12-11T07:17:52;1.10;;;1.10;;
10469;SDS011;5282;47.052;15.458;2022-12-11T07:20:19;1.20;;;1.20;;
10469;SDS011;5282;47.052;15.458;2022-12-11T07:22:46;1.17;;;1.17;;
10469;SDS011;5282;47.052;15.458;2022-12-11T07:25:14;2.20;;;2.00;;
10469;SDS011;5282;47.052;15.458;2022-12-11T07:27:41;2.27;;;2.17;;
10469;SDS011;5282;47.052;15.458;2022-12-11T07:30:08;2.40;;;2.30;;
10469;SDS011;5282;47.052;15.458;2022-12-11T07:32:36;1.50;;;1.50;;
10469;SDS011;5282;47.052;15.458;2022-12-11T07:35:03;1.57;;;1.57;;
10469;SDS011;5282;47.052;15.458;2022-12-11T07:37:31;1.60;;;1.60;;
10469;SDS011;5282;47.052;15.458;2022-12-11T07:39:58;2.10;;;2.00;;
10469;SDS011;5282;47.052;15.458;2022-12-11T07:42:27;1.73;;;1.63;;
10469;SDS011;5282;47.052;15.458;2022-12-11T07:44:54;1.80;;;1.80;;
10469;SDS011;5282;47.052;15.458;2022-12-11T07:47:22;1.87;;;1.80;;
10469;SDS011;5282;47.052;15.458;2022-12-11T07:49:49;2.10;;;2.00;;
10469;SDS011;5282;47.052;15.458;2022-12-11T07:52:16;2.20;;;1.70;;
10469;SDS011;5282;47.052;15.458;2022-12-11T07:54:43;1.87;;;1.87;;
10469;SDS011;5282;47.052;15.458;2022-12-11T07:57:10;1.80;;;1.70;;
10469;SDS011;5282;47.052;15.458;2022-12-11T07:59:38;2.00;;;1.90;;
10469;SDS011;5282;47.052;15.458;2022-12-11T08:02:05;2.33;;;2.23;;
10469;SDS011;5282;47.052;15.458;2022-12-11T08:04:34;2.00;;;1.90;;
10469;SDS011;5282;47.052;15.458;2022-12-11T08:07:01;2.33;;;2.23;;
10469;SDS011;5282;47.052;15.458;2022-12-11T08:09:28;2.20;;;2.10;;
10469;SDS011;5282;47.052;15.458;2022-12-11T08:11:55;2.47;;;2.23;;
10469;SDS011;5282;47.052;15.458;2022-12-11T08:14:22;1.90;;;1.80;;
10469;SDS011;5282;47.052;15.458;2022-12-11T08:16:51;2.30;;;2.20;;
10469;SDS011;5282;47.052;15.458;2022-12-11T08:19:18;2.17;;;2.07;;
10469;SDS011;5282;47.052;15.458;2022-12-11T08:21:44;2.27;;;2.13;;
10469;SDS011;5282;47.052;15.458;2022-12-11T08:24:11;2.20;;;2.10;;
10469;SDS011;5282;47.052;15.458;2022-12-11T08:26:43;2.20;;;2.10;;
10469;SDS011;5282;47.052;15.458;2022-12-11T08:29:10;2.40;;;2.20;;
10469;SDS011;5282;47.052;15.458;2022-12-11T08:31:37;2.53;;;2.43;;
10469;SDS011;5282;47.052;15.458;2022-12-11T08:34:06;2.67;;;2.47;;
10469;SDS011;5282;47.052;15.458;2022-12-11T08:36:33;3.17;;;3.00;;
10469;SDS011;5282;47.052;15.458;2022-12-11T08:39:00;2.47;;;2.33;;
10469;SDS011;5282;47.052;15.458;2022-12-11T08:41:28;2.20;;;2.10;;
10469;SDS011;5282;47.052;15.458;2022-12-11T08:43:55;2.07;;;1.97;;
10469;SDS011;5282;47.052;15.458;2022-12-11T08:46:25;2.60;;;2.40;;
10469;SDS011;5282;47.052;15.458;2022-12-11T08:48:54;1.80;;;1.70;;
10469;SDS011;5282;47.052;15.458;2022-12-11T08:51:23;2.20;;;2.10;;
10469;SDS011;5282;47.052;15.458;2022-12-11T08:53:53;2.47;;;2.37;;
10469;SDS011;5282;47.052;15.458;2022-12-11T08:56:20;1.90;;;1.80;;
10469;SDS011;5282;47.052;15.458;2022-12-11T08:58:48;3.70;;;2.53;;
10469;SDS011;5282;47.052;15.458;2022-12-11T09:01:16;2.30;;;2.20;;
10469;SDS011;5282;47.052;15.458;2022-12-11T09:03:46;2.30;;;2.20;;
10469;SDS011;5282;47.052;15.458;2022-12-11T09:06:14;2.50;;;2.40;;
10469;SDS011;5282;47.052;15.458;2022-12-11T09:08:45;2.00;;;1.90;;
10469;SDS011;5282;47.052;15.458;2022-12-11T09:11:14;1.77;;;1.77;;
10469;SDS011;5282;47.052;15.458;2022-12-11T09:13:43;1.53;;;1.53;;
10469;SDS011;5282;47.052;15.458;2022-12-11T09:16:11;1.70;;;1.70;;
10469;SDS011;5282;47.052;15.458;2022-12-11T09:18:40;1.80;;;1.70;;
10469;SDS011;5282;47.052;15.458;2022-12-11T09:21:08;2.07;;;1.97;;
10469;SDS011;5282;47.052;15.458;2022-12-11T09:23:36;2.30;;;2.20;;
10469;SDS011;5282;47.052;15.458;2022-12-11T09:26:05;1.87;;;1.80;;
10469;SDS011;5282;47.052;15.458;2022-12-11T09:28:32;2.10;;;2.00;;
10469;SDS011;5282;47.052;15.458;2022-12-11T09:30:59;1.90;;;1.80;;
10469;SDS011;5282;47.052;15.458;2022-12-11T09:33:26;1.80;;;1.80;;
10469;SDS011;5282;47.052;15.458;2022-12-11T09:35:57;1.50;;;1.50;;
10469;SDS011;5282;47.052;15.458;2022-12-11T09:38:24;3.43;;;1.83;;
10469;SDS011;5282;47.052;15.458;2022-12-11T09:40:51;1.97;;;1.87;;
10469;SDS011;5282;47.052;15.458;2022-12-11T09:43:24;1.67;;;1.57;;
10469;SDS011;5282;47.052;15.458;2022-12-11T09:46:00;1.93;;;1.90;;
10469;SDS011;5282;47.052;15.458;2022-12-11T09:48:30;2.20;;;1.83;;
10469;SDS011;5282;47.052;15.458;2022-12-11T09:50:59;1.80;;;1.80;;
10469;SDS011;5282;47.052;15.458;2022-12-11T09:53:31;1.90;;;1.80;;
10469;SDS011;5282;47.052;15.458;2022-12-11T09:56:03;2.03;;;1.93;;
10469;SDS011;5282;47.052;15.458;2022-12-11T09:58:42;1.53;;;1.53;;
10469;SDS011;5282;47.052;15.458;2022-12-11T10:01:20;1.77;;;1.77;;
10469;SDS011;5282;47.052;15.458;2022-12-11T10:03:59;2.00;;;1.80;;
10469;SDS011;5282;47.052;15.458;2022-12-11T10:06:42;2.17;;;1.90;;
10469;SDS011;5282;47.052;15.458;2022-12-11T10:09:16;1.83;;;1.77;;
10469;SDS011;5282;47.052;15.458;2022-12-11T10:11:56;1.80;;;1.70;;
10469;SDS011;5282;47.052;15.458;2022-12-11T10:14:35;1.83;;;1.83;;
10469;SDS011;5282;47.052;15.458;2022-12-11T10:17:12;1.60;;;1.60;;
10469;SDS011;5282;47.052;15.458;2022-12-11T10:19:44;1.70;;;1.70;;
10469;SDS011;5282;47.052;15.458;2022-12-11T10:22:13;1.63;;;1.63;;
10469;SDS011;5282;47.052;15.458;2022-12-11T10:24:45;1.87;;;1.87;;
10469;SDS011;5282;47.052;15.458;2022-12-11T10:27:21;2.13;;;2.03;;
10469;SDS011;5282;47.052;15.458;2022-12-11T10:29:53;1.80;;;1.80;;
10469;SDS011;5282;47.052;15.458;2022-12-11T10:32:28;2.00;;;1.90;;
10469;SDS011;5282;47.052;15.458;2022-12-11T10:35:01;1.80;;;1.80;;
10469;SDS011;5282;47.052;15.458;2022-12-11T10:37:31;2.27;;;2.17;;
10469;SDS011;5282;47.052;15.458;2022-12-11T10:39:58;2.50;;;2.23;;
10469;SDS011;5282;47.052;15.458;2022-12-11T10:42:25;1.90;;;1.80;;
10469;SDS011;5282;47.052;15.458;2022-12-11T10:44:56;2.10;;;2.00;;
10469;SDS011;5282;47.052;15.458;2022-12-11T10:47:25;2.00;;;1.90;;
10469;SDS011;5282;47.052;15.458;2022-12-11T10:49:53;2.10;;;2.00;;
10469;SDS011;5282;47.052;15.458;2022-12-11T10:52:23;1.90;;;1.80;;
10469;SDS011;5282;47.052;15.458;2022-12-11T10:54:54;1.73;;;1.73;;
10469;SDS011;5282;47.052;15.458;2022-12-11T10:57:25;2.00;;;2.00;;
10469;SDS011;5282;47.052;15.458;2022-12-11T10:59:55;2.13;;;2.03;;
10469;SDS011;5282;47.052;15.458;2022-12-11T11:02:24;2.20;;;2.10;;
10469;SDS011;5282;47.052;15.458;2022-12-11T11:04:53;2.10;;;2.07;;
10469;SDS011;5282;47.052;15.458;2022-12-11T11:07:23;2.20;;;2.10;;
10469;SDS011;5282;47.052;15.458;2022-12-11T11:10:03;1.87;;;1.87;;
10469;SDS011;5282;47.052;15.458;2022-12-11T11:12:40;1.90;;;1.90;;
10469;SDS011;5282;47.052;15.458;2022-12-11T11:15:11;2.40;;;2.30;;
10469;SDS011;5282;47.052;15.458;2022-12-11T11:17:41;2.20;;;2.10;;
10469;SDS011;5282;47.052;15.458;2022-12-11T11:20:12;2.17;;;2.07;;
10469;SDS011;5282;47.052;15.458;2022-12-11T11:22:43;2.40;;;2.30;;
10469;SDS011;5282;47.052;15.458;2022-12-11T11:25:14;2.30;;;2.20;;
10469;SDS011;5282;47.052;15.458;2022-12-11T11:27:47;3.90;;;2.40;;
10469;SDS011;5282;47.052;15.458;2022-12-11T11:30:19;1.80;;;1.80;;
10469;SDS011;5282;47.052;15.458;2022-12-11T11:32:49;2.37;;;2.27;;
10469;SDS011;5282;47.052;15.458;2022-12-11T11:35:18;2.20;;;2.10;;
10469;SDS011;5282;47.052;15.458;2022-12-11T11:37:52;2.30;;;2.20;;
10469;SDS011;5282;47.052;15.458;2022-12-11T11:40:23;2.50;;;2.30;;
10469;SDS011;5282;47.052;15.458;2022-12-11T11:42:55;2.20;;;2.10;;
10469;SDS011;5282;47.052;15.458;2022-12-11T11:45:32;2.00;;;2.00;;
10469;SDS011;5282;47.052;15.458;2022-12-11T11:48:08;2.50;;;2.40;;
10469;SDS011;5282;47.052;15.458;2022-12-11T11:50:44;2.30;;;2.20;;
10469;SDS011;5282;47.052;15.458;2022-12-11T11:53:16;2.20;;;2.10;;
10469;SDS011;5282;47.052;15.458;2022-12-11T11:55:48;2.30;;;2.20;;
10469;SDS011;5282;47.052;15.458;2022-12-11T11:58:20;2.43;;;1.97;;
10469;SDS011;5282;47.052;15.458;2022-12-11T12:00:54;2.03;;;2.03;;
10469;SDS011;5282;47.052;15.458;2022-12-11T12:03:22;2.23;;;2.13;;
10469;SDS011;5282;47.052;15.458;2022-12-11T12:05:52;2.43;;;2.33;;
10469;SDS011;5282;47.052;15.458;2022-12-11T12:08:27;2.20;;;2.03;;
10469;SDS011;5282;47.052;15.458;2022-12-11T12:11:06;2.37;;;2.27;;
10469;SDS011;5282;47.052;15.458;2022-12-11T12:13:44;2.30;;;2.20;;
10469;SDS011;5282;47.052;15.458;2022-12-11T12:16:24;2.13;;;2.03;;
10469;SDS011;5282;47.052;15.458;2022-12-11T12:19:00;2.30;;;2.20;;
10469;SDS011;5282;47.052;15.458;2022-12-11T12:21:35;2.20;;;2.10;;
10469;SDS011;5282;47.052;15.458;2022-12-11T12:24:05;2.10;;;1.90;;
10469;SDS011;5282;47.052;15.458;2022-12-11T12:26:41;3.40;;;1.90;;
10469;SDS011;5282;47.052;15.458;2022-12-11T12:29:18;2.17;;;2.10;;
10469;SDS011;5282;47.052;15.458;2022-12-11T12:31:59;2.20;;;2.10;;
10469;SDS011;5282;47.052;15.458;2022-12-11T12:34:38;1.93;;;1.93;;
10469;SDS011;5282;47.052;15.458;2022-12-11T12:37:19;2.17;;;2.10;;
10469;SDS011;5282;47.052;15.458;2022-12-11T12:39:53;1.83;;;1.83;;
10469;SDS011;5282;47.052;15.458;2022-12-11T12:42:31;2.30;;;2.20;;
10469;SDS011;5282;47.052;15.458;2022-12-11T12:45:08;2.27;;;2.17;;
10469;SDS011;5282;47.052;15.458;2022-12-11T12:47:47;2.00;;;1.90;;
10469;SDS011;5282;47.052;15.458;2022-12-11T12:50:15;2.20;;;2.10;;
10469;SDS011;5282;47.052;15.458;2022-12-11T12:52:45;2.10;;;2.00;;
10469;SDS011;5282;47.052;15.458;2022-12-11T12:55:17;2.10;;;2.00;;
10469;SDS011;5282;47.052;15.458;2022-12-11T12:57:49;2.27;;;2.20;;
10469;SDS011;5282;47.052;15.458;2022-12-11T13:00:25;2.43;;;2.33;;
10469;SDS011;5282;47.052;15.458;2022-12-11T13:02:55;2.30;;;2.20;;
10469;SDS011;5282;47.052;15.458;2022-12-11T13:05:23;2.20;;;2.10;;
10469;SDS011;5282;47.052;15.458;2022-12-11T13:07:52;1.80;;;1.80;;
10469;SDS011;5282;47.052;15.458;2022-12-11T13:10:24;2.23;;;2.13;;
10469;SDS011;5282;47.052;15.458;2022-12-11T13:12:55;2.20;;;2.10;;
10469;SDS011;5282;47.052;15.458;2022-12-11T13:15:26;2.20;;;2.10;;
10469;SDS011;5282;47.052;15.458;2022-12-11T13:18:29;2.10;;;1.80;;
10469;SDS011;5282;47.052;15.458;2022-12-11T13:20:59;1.90;;;1.80;;
10469;SDS011;5282;47.052;15.458;2022-12-11T13:23:27;2.03;;;1.93;;
10469;SDS011;5282;47.052;15.458;2022-12-11T13:25:56;2.10;;;2.00;;
10469;SDS011;5282;47.052;15.458;2022-12-11T13:28:28;1.63;;;1.57;;
10469;SDS011;5282;47.052;15.458;2022-12-11T13:31:02;2.03;;;2.00;;
10469;SDS011;5282;47.052;15.458;2022-12-11T13:33:38;2.10;;;2.03;;
10469;SDS011;5282;47.052;15.458;2022-12-11T13:36:22;1.83;;;1.83;;
10469;SDS011;5282;47.052;15.458;2022-12-11T13:38:52;1.90;;;1.90;;
10469;SDS011;5282;47.052;15.458;2022-12-11T13:41:22;1.90;;;1.90;;
10469;SDS011;5282;47.052;15.458;2022-12-11T13:43:50;1.73;;;1.73;;
10469;SDS011;5282;47.052;15.458;2022-12-11T13:46:19;1.87;;;1.80;;
10469;SDS011;5282;47.052;15.458;2022-12-11T13:48:52;2.20;;;2.10;;
10469;SDS011;5282;47.052;15.458;2022-12-11T13:51:22;1.57;;;1.57;;
10469;SDS011;5282;47.052;15.458;2022-12-11T13:54:01;2.00;;;1.80;;
10469;SDS011;5282;47.052;15.458;2022-12-11T13:56:29;1.93;;;1.90;;
10469;SDS011;5282;47.052;15.458;2022-12-11T13:58:57;2.00;;;1.90;;
10469;SDS011;5282;47.052;15.458;2022-12-11T14:01:24;2.20;;;2.10;;
10469;SDS011;5282;47.052;15.458;2022-12-11T14:03:56;2.00;;;1.90;;
10469;SDS011;5282;47.052;15.458;2022-12-11T14:06:24;2.20;;;2.10;;
10469;SDS011;5282;47.052;15.458;2022-12-11T14:08:56;1.80;;;1.70;;
10469;SDS011;5282;47.052;15.458;2022-12-11T14:11:27;2.20;;;2.10;;
10469;SDS011;5282;47.052;15.458;2022-12-11T14:13:59;1.97;;;1.83;;
10469;SDS011;5282;47.052;15.458;2022-12-11T14:16:29;2.10;;;2.00;;
10469;SDS011;5282;47.052;15.458;2022-12-11T14:19:00;1.83;;;1.83;;
10469;SDS011;5282;47.052;15.458;2022-12-11T14:21:29;1.50;;;1.50;;
10469;SDS011;5282;47.052;15.458;2022-12-11T14:23:57;2.20;;;1.77;;
10469;SDS011;5282;47.052;15.458;2022-12-11T14:26:25;1.90;;;1.87;;
10469;SDS011;5282;47.052;15.458;2022-12-11T14:28:54;2.03;;;1.90;;
10469;SDS011;5282;47.052;15.458;2022-12-11T14:31:23;1.90;;;1.67;;
10469;SDS011;5282;47.052;15.458;2022-12-11T14:33:55;1.90;;;1.80;;
10469;SDS011;5282;47.052;15.458;2022-12-11T14:36:26;1.80;;;1.70;;
10469;SDS011;5282;47.052;15.458;2022-12-11T14:38:56;1.77;;;1.67;;
10469;SDS011;5282;47.052;15.458;2022-12-11T14:41:28;1.90;;;1.80;;
10469;SDS011;5282;47.052;15.458;2022-12-11T14:44:01;1.80;;;1.80;;
10469;SDS011;5282;47.052;15.458;2022-12-11T14:46:35;2.10;;;2.00;;
10469;SDS011;5282;47.052;15.458;2022-12-11T14:49:05;3.03;;;2.87;;
10469;SDS011;5282;47.052;15.458;2022-12-11T14:51:37;2.07;;;1.97;;
10469;SDS011;5282;47.052;15.458;2022-12-11T14:54:06;1.80;;;1.70;;
10469;SDS011;5282;47.052;15.458;2022-12-11T14:56:41;2.40;;;2.20;;
10469;SDS011;5282;47.052;15.458;2022-12-11T14:59:14;2.17;;;2.07;;
10469;SDS011;5282;47.052;15.458;2022-12-11T15:01:46;2.23;;;2.13;;
10469;SDS011;5282;47.052;15.458;2022-12-11T15:04:26;1.80;;;1.80;;
10469;SDS011;5282;47.052;15.458;2022-12-11T15:06:57;1.60;;;1.60;;